Glenville, New York
Current Conditions -  °F | °C
As of 8:15 PM on Thursday 27 Nov 2014 (Local Time) from KNY0 Reporting Station
Overcast Overcast  
Wind Chill: -7°   Ceiling: 5000
Heat Index: -3°   Visibility: 10mi
Dew Point: -5°   Wind: 5mph
Humidity: 89%   Direction: 260°W
Pressure: 30.01"   Gusts: NA
Location:  42.9294°N, 74.0527°W
Report Text: KNY0 280115Z AUTO 26004KT 10SM OVC050 M03/M05 A3001 RMK AO2 T10351050
Loading
Personal Weather Stations






























Interactive Weather Map New forecast layout! Learn more

10-Day Weather Forecast

Advertisements
Track Severe Weather on mobile